Pietro Novelli — IOTQ — position and weather

sailwx.info

Track history (hours):
 
Tides and Currents Weather Stations Pressure Air Temp Water Temp Dewpoint Dewpoint Depression Visibility Wind Speed Wind Dir Waves Ship Positions

Pietro Novelli

Last reported at 2015-Aug-05 03:33 UTC. Time now 2015-Aug-05 04:21 UTC.
Position N 36°02' E 012°52'.

Length 91 m; draft 3.9 m.

Type: Ship. MMSI: 247000300.

Date/timePositionNaut miles runAvg speedWind from/ knotsBaromVisibWave heightAir tempDewpointWater temp
2015-Aug-05 03:33N 36°02' E 012°52'1312.9
2015-Aug-05 02:33N 36°14' E 012°57'1313.0
2015-Aug-05 01:33N 36°27' E 013°03'1313.2
2015-Aug-05 00:33N 36°39' E 013°10'1313.1
2015-Aug-04 23:33N 36°51' E 013°17'101 3.0
2015-Aug-03 14:16N 37°31' E 015°13'1013.8
2015-Aug-03 13:33N 37°41' E 015°14'1414.2
2015-Aug-03 12:33N 37°53' E 015°23'1413.7
2015-Aug-03 11:33N 38°05' E 015°32'1413.9
2015-Aug-03 10:34N 38°17' E 015°40'1312.9
2015-Aug-03 09:34N 38°18' E 015°24'6 0.4
2015-Aug-02 18:33N 38°16' E 015°17'1313.5
2015-Aug-02 17:33N 38°18' E 014°59'1413.6
2015-Aug-02 16:32N 38°17' E 014°42'2014.0
2015-Aug-02 15:08N 38°17' E 014°17'1314.0
2015-Aug-02 14:14N 38°17' E 014°01'1413.9
2015-Aug-02 13:13N 38°16' E 013°43'1014.3
2015-Aug-02 12:33N 38°16' E 013°31'4214.0
2015-Aug-02 09:32N 38°11' E 012°37'1313.3
2015-Aug-02 08:33N 38°02' E 012°25'  
2015-Jul-30 12:12N 38°01' E 012°31'  
Track history (hours):
 
Tides and Currents Weather Stations Pressure Air Temp Water Temp Dewpoint Dewpoint Depression Visibility Wind Speed Wind Dir Waves Ship Positions

Pietro Novelli

Last reported at 2015-Aug-05 03:33 UTC. Time now 2015-Aug-05 04:21 UTC.
Position N 36°02' E 012°52'.

Length 91 m; draft 3.9 m.

Type: Ship. MMSI: 247000300.

Date/timePositionNaut miles runAvg speedWind from/ knotsBaromVisibWave heightAir tempDewpointWater temp
2015-Aug-05 03:33N 36°02' E 012°52'1312.9
2015-Aug-05 02:33N 36°14' E 012°57'1313.0
2015-Aug-05 01:33N 36°27' E 013°03'1313.2
2015-Aug-05 00:33N 36°39' E 013°10'1313.1
2015-Aug-04 23:33N 36°51' E 013°17'101 3.0
2015-Aug-03 14:16N 37°31' E 015°13'1013.8
2015-Aug-03 13:33N 37°41' E 015°14'1414.2
2015-Aug-03 12:33N 37°53' E 015°23'1413.7
2015-Aug-03 11:33N 38°05' E 015°32'1413.9
2015-Aug-03 10:34N 38°17' E 015°40'1312.9
2015-Aug-03 09:34N 38°18' E 015°24'6 0.4
2015-Aug-02 18:33N 38°16' E 015°17'1313.5
2015-Aug-02 17:33N 38°18' E 014°59'1413.6
2015-Aug-02 16:32N 38°17' E 014°42'2014.0
2015-Aug-02 15:08N 38°17' E 014°17'1314.0
2015-Aug-02 14:14N 38°17' E 014°01'1413.9
2015-Aug-02 13:13N 38°16' E 013°43'1014.3
2015-Aug-02 12:33N 38°16' E 013°31'4214.0
2015-Aug-02 09:32N 38°11' E 012°37'1313.3
2015-Aug-02 08:33N 38°02' E 012°25'  
2015-Jul-30 12:12N 38°01' E 012°31'  

Dump ship's entire track history